Points, West Virginia
Current Conditions -  °F | °C
As of 2:02 PM on Tuesday 27 Jan 2015 (Local Time) from KCBE Reporting Station
Scattered Clouds Scattered Clouds  
Wind Chill: 26°   Ceiling: Unl
Heat Index: 32°   Visibility: 10mi
Dew Point: 18°   Wind: 6mph
Humidity: 55%   Direction: 280°W
Pressure: 29.9"   Gusts: NA
Location:  39.44°N, 78.61°W
Report Text: KCBE 271902Z AUTO 28005KT 10SM SCT033 SCT044 SCT050 00/M08 A2990 RMK AO1
Loading
Personal Weather Stations






























Interactive Weather Map New forecast layout! Learn more

10-Day Weather Forecast

Advertisements
Track Severe Weather on mobile